Latest Weather Observations for Woomera

IDS60801

Issued at 12:21 pm CST Thursday 18 July 2019 (issued every 10 minutes, with the page automatically refreshed every 10 minutes)

About weather observations | Map of weather stations | Latest weather observations for SA | Other Formats
Station Details ID: 016001 Name: WOOMERA AERODROME Lat: -31.16 Lon: 136.81 Height: 166.6 m
Data from the previous 72 hours. | See also: Recent months at Woomera
Date/Time
CST
Temp
°C
App
Temp
°C
Dew
Point
°C
Rel
Hum
%
Delta-T
°C
Wind Press
QNH
hPa
Press
MSL
hPa
Rain since
9am
mm
Dir  Spd
km/h
Gust
km/h
Spd
kts
Gust
kts
18/12:00pm 16.0 11.5 4.4 46 5.4 NW 17 30 9 16 1023.3 1023.5 0.0
18/11:30am 15.1 11.5 4.8 50 4.8 NNW 13 20 7 11 1023.7 1023.8 0.0
18/11:00am 14.0 10.0 4.9 54 4.3 N 15 22 8 12 1024.0 1024.1 0.0
18/10:30am 13.4 9.4 5.1 57 3.9 N 15 22 8 12 1024.4 1024.5 0.0
18/10:00am 12.2 8.2 4.7 60 3.5 N 15 19 8 10 1024.4 1024.5 0.0
18/09:30am 10.4 6.7 4.3 66 2.7 N 13 17 7 9 1024.1 1024.2 0.0
18/09:00am 9.9 6.6 4.7 70 2.3 N 11 13 6 7 1023.9 1024.0 0.0
18/08:30am 7.3 4.4 4.6 83 1.2 NNE 9 11 5 6 1023.5 1023.7 0.0
18/08:00am 5.3 2.7 4.1 92 0.5 NE 7 9 4 5 1023.4 1023.6 0.0
18/07:30am 4.8 2.4 4.2 96 0.3 NNE 6 7 3 4 1023.3 1023.5 0.0
18/07:00am 4.3 2.9 3.6 95 0.3 CALM 0 0 0 0 1023.2 1023.4 0.0
18/06:30am 4.6 2.5 3.7 94 0.4 NNE 4 6 2 3 1023.1 1023.3 0.0
18/06:00am 5.1 2.7 4.1 93 0.4 NNE 6 6 3 3 1022.9 1023.1 0.0
18/05:30am 5.7 3.2 4.7 93 0.4 NNE 7 7 4 4 1022.7 1022.9 0.0
18/05:00am 4.5 3.0 3.2 91 0.5 CALM 0 6 0 3 1022.9 1023.1 0.0
18/04:30am 4.5 1.9 3.0 90 0.6 WSW 6 7 3 4 1023.1 1023.3 0.0
18/04:00am 4.8 2.0 3.0 88 0.7 WSW 7 7 4 4 1023.2 1023.4 0.0
18/03:30am 4.9 2.1 3.4 90 0.6 WSW 7 9 4 5 1023.1 1023.3 0.0
18/03:00am 5.2 2.4 3.2 87 0.8 WSW 7 7 4 4 1023.3 1023.5 0.0
18/02:30am 5.6 3.0 3.4 86 0.9 WSW 6 7 3 4 1023.4 1023.6 0.0
18/02:00am 6.3 3.9 4.1 86 0.9 SW 6 7 3 4 1023.7 1023.8 0.0
18/01:30am 6.4 3.9 3.9 84 1.1 WSW 6 7 3 4 1024.0 1024.1 0.0
18/01:00am 6.8 4.2 4.1 83 1.2 SW 7 7 4 4 1024.1 1024.2 0.0
18/12:30am 6.6 4.0 4.1 84 1.1 WSW 7 9 4 5 1024.4 1024.5 0.0
18/12:00am 5.7 2.4 2.7 81 1.2 WSW 9 11 5 6 1024.6 1024.7 0.0
 
Date/Time
CST
Temp
°C
App
Temp
°C
Dew
Point
°C
Rel
Hum
%
Delta-T
°C
Wind Press
QNH
hPa
Press
MSL
hPa
Rain since
9am
mm
Dir  Spd
km/h
Gust
km/h
Spd
kts
Gust
kts
17/11:30pm 6.8 3.7 3.6 80 1.4 WSW 9 9 5 5 1024.6 1024.7 0.0
17/11:00pm 7.5 4.5 3.9 78 1.6 SW 9 9 5 5 1024.8 1024.9 0.0
17/10:30pm 7.6 4.6 4.0 78 1.6 SSW 9 11 5 6 1024.7 1024.8 0.0
17/10:00pm 7.6 5.1 3.8 77 1.6 SW 6 7 3 4 1024.8 1024.9 0.0
17/09:30pm 8.0 5.3 3.7 74 1.9 SW 7 9 4 5 1024.9 1025.0 0.0
17/09:00pm 8.2 5.1 3.7 73 1.9 SW 9 11 5 6 1024.9 1025.0 0.0
17/08:30pm 8.9 5.5 4.1 72 2.1 SW 11 13 6 7 1025.0 1025.1 0.0
17/08:00pm 9.2 5.4 3.8 69 2.4 SW 13 15 7 8 1024.7 1024.8 0.0
17/07:30pm 10.1 6.8 4.3 67 2.6 SSW 11 13 6 7 1024.6 1024.7 0.0
17/07:00pm 10.2 6.8 3.9 65 2.8 SSW 11 13 6 7 1024.5 1024.6 0.0
17/06:30pm 11.0 7.6 4.2 63 3.1 SSW 11 13 6 7 1024.4 1024.5 0.0
17/06:00pm 12.2 7.8 4.9 61 3.4 SSW 17 22 9 12 1024.1 1024.2 0.0
17/05:30pm 13.3 8.7 5.5 59 3.7 SW 19 22 10 12 1024.1 1024.2 0.0
17/05:00pm 13.9 8.5 4.5 53 4.4 SW 22 28 12 15 1024.0 1024.1 0.0
17/04:30pm 14.5 9.2 4.8 52 4.5 SW 22 28 12 15 1023.9 1024.0 0.0
17/04:00pm 15.3 10.4 5.2 51 4.8 SW 20 30 11 16 1023.9 1024.0 0.0
17/03:30pm 15.6 9.9 4.9 49 5.1 WSW 24 33 13 18 1023.7 1023.8 0.0
17/03:00pm 15.7 10.5 5.3 50 5.0 WSW 22 32 12 17 1024.0 1024.1 0.0
17/02:30pm 16.2 11.0 5.5 49 5.1 WSW 22 32 12 17 1024.1 1024.2 0.0
17/02:00pm 16.1 10.5 5.4 49 5.2 W 24 37 13 20 1024.4 1024.5 0.0
17/01:30pm 15.9 10.4 6.1 52 4.8 W 24 35 13 19 1024.6 1024.7 0.0
17/01:00pm 15.8 10.9 6.8 55 4.5 WSW 22 30 12 16 1025.1 1025.2 0.0
17/12:30pm 15.4 10.6 7.2 58 4.1 WSW 22 32 12 17 1025.6 1025.7 0.0
17/12:00pm 14.7 9.6 7.5 62 3.6 WSW 24 30 13 16 1026.3 1026.4 0.0
17/11:30am 14.5 10.3 8.2 66 3.2 WSW 20 30 11 16 1026.8 1026.9 0.0
17/11:00am 12.8 10.6 9.4 80 1.7 SW 11 15 6 8 1027.2 1027.4 0.0
17/10:30am 11.7 9.1 9.4 86 1.2 SW 13 17 7 9 1027.3 1027.5 0.0
17/10:03am 11.1 8.6 9.7 91 0.7 SW 13 17 7 9 1027.4 1027.6 0.0
17/10:00am 11.2 8.8 10.0 92 0.6 SW 13 15 7 8 1027.4 1027.6 0.0
17/09:47am 10.7 8.3 10.1 96 0.3 SSW 13 19 7 10 1027.4 1027.6 0.0
17/09:41am 10.6 7.9 10.3 98 0.2 SSW 15 19 8 10 1027.4 1027.6 0.0
17/09:30am 10.3 7.9 10.1 99 0.1 SSW 13 15 7 8 1027.3 1027.5 0.0
17/09:24am 10.0 7.2 9.9 99 0.1 SSW 15 20 8 11 1027.2 1027.4 0.0
17/09:00am 9.1 6.0 9.0 99 0.0 SSW 15 17 8 9 1027.3 1027.5 0.0
17/08:30am 7.7 5.1 7.6 99 0.0 SW 11 17 6 9 1026.9 1027.1 0.0
17/08:12am 6.8 3.9 6.7 99 0.0 SW 11 13 6 7 1026.7 1026.8 0.0
17/08:00am 6.2 3.2 6.1 99 0.0 SW 11 13 6 7 1026.5 1026.6 0.0
17/07:30am 6.1 3.1 6.0 99 0.0 SW 11 13 6 7 1026.3 1026.4 0.0
17/07:12am 6.0 2.6 5.9 99 0.0 SW 13 15 7 8 1026.3 1026.4 0.0
17/07:09am 5.9 2.5 5.8 99 0.0 SW 13 15 7 8 1026.2 1026.3 0.0
17/07:00am 5.4 2.2 5.3 99 0.0 SW 11 11 6 6 1026.1 1026.2 0.0
17/06:30am 5.8 2.7 5.7 99 0.0 SSW 11 13 6 7 1025.9 1026.0 0.0
17/06:03am 5.5 2.3 5.2 98 0.1 SSW 11 13 6 7 1026.0 1026.1 0.0
17/06:00am 5.4 2.2 5.1 98 0.1 SW 11 13 6 7 1025.9 1026.0 0.0
17/05:39am 6.5 4.3 6.2 98 0.1 SSE 7 7 4 4 1025.6 1025.7 0.0
17/05:30am 6.9 4.8 6.5 97 0.2 SSE 7 9 4 5 1025.5 1025.6 0.0
17/05:00am 7.5 5.1 7.1 97 0.2 SE 9 11 5 6 1025.5 1025.6 0.0
17/04:30am 6.4 3.7 5.8 96 0.3 SSW 9 9 5 5 1025.6 1025.7 0.0
17/04:00am 7.3 5.2 6.6 95 0.3 S 7 9 4 5 1025.7 1025.8 0.0
17/03:30am 7.3 4.8 6.4 94 0.4 SSW 9 11 5 6 1025.9 1026.0 0.0
17/03:00am 7.8 5.3 6.7 93 0.5 SSW 9 11 5 6 1026.3 1026.4 0.0
17/02:30am 8.0 5.5 6.6 91 0.6 SSW 9 11 5 6 1026.4 1026.5 0.0
17/02:00am 9.1 6.1 7.5 90 0.8 SW 13 15 7 8 1026.6 1026.7 0.0
17/01:30am 8.9 6.1 7.0 88 0.9 SW 11 15 6 8 1026.9 1027.1 0.0
17/01:00am 9.0 5.5 7.0 87 0.9 SW 15 15 8 8 1027.2 1027.4 0.0
17/12:30am 9.1 6.2 6.7 85 1.1 SW 11 15 6 8 1027.4 1027.6 0.0
17/12:00am 9.2 5.9 6.6 84 1.2 SW 13 15 7 8 1027.7 1027.9 0.0
 
Date/Time
CST
Temp
°C
App
Temp
°C
Dew
Point
°C
Rel
Hum
%
Delta-T
°C
Wind Press
QNH
hPa
Press
MSL
hPa
Rain since
9am
mm
Dir  Spd
km/h
Gust
km/h
Spd
kts
Gust
kts
16/11:30pm 9.4 6.6 6.8 84 1.2 SW 11 13 6 7 1027.8 1028.0 0.0
16/11:00pm 9.2 6.3 6.5 83 1.3 WSW 11 11 6 6 1027.9 1028.1 0.0
16/10:30pm 9.5 7.0 6.4 81 1.4 WSW 9 11 5 6 1027.9 1028.1 0.0
16/10:00pm 9.5 6.5 6.2 80 1.5 WSW 11 11 6 6 1028.0 1028.2 0.0
16/09:30pm 10.4 7.1 6.5 77 1.8 SW 13 13 7 7 1028.2 1028.4 0.0
16/09:00pm 10.5 6.9 6.8 78 1.7 SW 15 17 8 9 1028.2 1028.4 0.0
16/08:30pm 10.7 7.4 6.6 76 1.9 SW 13 15 7 8 1028.2 1028.4 0.0
16/08:00pm 11.4 8.2 6.9 74 2.2 SW 13 13 7 7 1028.2 1028.4 0.0
16/07:30pm 12.2 9.5 7.5 73 2.3 SW 11 11 6 6 1028.3 1028.5 0.0
16/07:00pm 12.5 9.8 7.4 71 2.5 SSW 11 15 6 8 1028.2 1028.4 0.0
16/06:30pm 13.1 10.4 7.5 69 2.7 SSW 11 13 6 7 1027.9 1028.1 0.0
16/06:00pm 14.4 11.5 8.1 66 3.2 SSW 13 17 7 9 1027.7 1027.9 0.0
16/05:30pm 15.1 11.4 8.1 63 3.5 SSW 17 20 9 11 1027.4 1027.6 0.0
16/05:00pm 16.0 12.4 8.2 60 4.0 SSW 17 20 9 11 1027.3 1027.5 0.0
16/04:30pm 16.5 12.8 8.0 57 4.3 SW 17 22 9 12 1027.4 1027.6 0.0
16/04:00pm 17.1 13.9 8.3 56 4.5 SW 15 22 8 12 1027.3 1027.5 0.0
16/03:30pm 17.2 14.7 8.1 55 4.6 SW 11 19 6 10 1027.2 1027.4 0.0
16/03:00pm 16.9 14.4 8.1 56 4.5 SW 11 17 6 9 1027.4 1027.6 0.0
16/02:30pm 16.7 14.2 8.1 57 4.4 W 11 20 6 11 1027.7 1027.9 0.0
16/02:00pm 16.1 13.9 7.8 58 4.2 WSW 9 13 5 7 1028.0 1028.2 0.0
16/01:30pm 16.0 13.9 8.2 60 4.0 N 9 13 5 7 1028.3 1028.5 0.0
16/01:00pm 14.8 13.1 8.3 65 3.3 SW 7 15 4 8 1028.9 1029.1 0.0
16/12:30pm 14.9 13.3 8.6 66 3.2 WSW 7 11 4 6 1029.4 1029.6 0.0
16/12:00pm 14.2 13.1 8.4 68 2.9 ESE 4 7 2 4 1030.0 1030.1 0.0
16/11:30am 13.1 11.4 8.2 72 2.4 SE 7 11 4 6 1030.4 1030.5 0.0
16/11:27am 13.0 11.5 8.3 73 2.4 SE 6 11 3 6 1030.5 1030.6 0.0
16/11:00am 11.8 9.8 8.6 81 1.6 SSW 9 13 5 7 1030.9 1031.0 0.0
16/10:30am 11.6 9.5 8.3 80 1.6 ESE 9 15 5 8 1031.1 1031.2 0.0
16/10:00am 10.2 8.2 8.8 91 0.7 SSE 9 13 5 7 1031.1 1031.2 0.0
16/09:35am 10.3 7.6 9.1 92 0.6 SE 13 19 7 10 1031.1 1031.2 0.0
16/09:30am 10.2 7.6 9.3 94 0.4 SE 13 19 7 10 1031.1 1031.2 0.0
16/09:07am 9.8 7.1 8.9 94 0.4 SE 13 17 7 9 1031.0 1031.1 0.0
16/09:00am 9.6 6.8 8.7 94 0.4 SSE 13 17 7 9 1030.9 1031.0 0.0
16/08:30am 9.6 6.8 8.7 94 0.4 SSE 13 17 7 9 1030.7 1030.8 0.0
16/08:00am 9.2 5.6 8.3 94 0.4 SE 17 22 9 12 1030.3 1030.4 0.0
16/07:30am 9.4 6.1 8.2 92 0.6 SSE 15 20 8 11 1030.3 1030.4 0.0
16/07:00am 9.5 5.5 8.1 91 0.7 SSE 19 22 10 12 1030.2 1030.3 0.0
16/06:30am 9.4 5.1 8.0 91 0.7 SSE 20 26 11 14 1030.0 1030.1 0.0
16/06:00am 9.6 6.0 8.2 91 0.7 SSE 17 22 9 12 1029.7 1029.9 0.0
16/05:30am 9.7 5.7 8.3 91 0.7 SSE 19 24 10 13 1029.4 1029.6 0.0
16/05:00am 9.7 5.6 8.5 92 0.6 SSE 20 28 11 15 1029.1 1029.3 0.0
16/04:30am 9.7 5.5 8.3 91 0.7 SSE 20 28 11 15 1029.3 1029.5 0.0
16/04:00am 10.0 5.8 8.4 90 0.8 SSE 20 26 11 14 1029.3 1029.5 0.0
16/03:30am 10.1 5.5 8.2 88 0.9 SSE 22 30 12 16 1029.4 1029.6 0.0
16/03:00am 10.2 5.7 8.5 89 0.8 SSE 22 28 12 15 1029.0 1029.2 0.0
16/02:30am 8.5 5.4 7.4 93 0.5 S 13 15 7 8 1029.4 1029.6 0.0
16/02:00am 8.4 5.3 7.3 93 0.5 SSE 13 17 7 9 1029.3 1029.5 0.0
16/01:53am 8.5 5.4 7.3 92 0.6 SSE 13 17 7 9 1029.3 1029.5 0.0
16/01:30am 8.9 5.5 7.5 91 0.7 SSE 15 19 8 10 1029.5 1029.7 0.0
16/01:00am 9.1 5.3 7.5 90 0.8 SSE 17 20 9 11 1029.4 1029.6 0.0
16/12:30am 9.4 5.2 7.5 88 0.9 SSE 19 20 10 11 1029.6 1029.8 0.0
16/12:00am 9.7 5.9 7.5 86 1.0 SE 17 20 9 11 1030.0 1030.1 0.0
 
Date/Time
CST
Temp
°C
App
Temp
°C
Dew
Point
°C
Rel
Hum
%
Delta-T
°C
Wind Press
QNH
hPa
Press
MSL
hPa
Rain since
9am
mm
Dir  Spd
km/h
Gust
km/h
Spd
kts
Gust
kts
15/11:30pm 10.2 6.4 7.6 84 1.2 SSE 17 22 9 12 1030.2 1030.3 0.0
15/11:00pm 10.3 6.8 7.0 80 1.6 SSE 15 20 8 11 1030.4 1030.5 0.0
15/10:30pm 10.4 6.7 6.4 76 1.9 SSE 15 17 8 9 1030.3 1030.4 0.0
15/10:00pm 10.3 7.0 6.3 76 1.9 S 13 15 7 8 1030.4 1030.5 0.0
15/09:30pm 11.0 7.3 6.2 72 2.2 S 15 19 8 10 1030.2 1030.3 0.0
15/09:00pm 11.5 7.4 6.2 70 2.5 S 17 20 9 11 1030.1 1030.2 0.0
15/08:30pm 11.9 7.8 6.0 67 2.8 S 17 20 9 11 1030.1 1030.2 0.0
15/08:00pm 12.3 8.1 5.9 65 3.0 S 17 20 9 11 1030.2 1030.3 0.0
15/07:30pm 12.7 8.5 5.8 63 3.2 S 17 22 9 12 1030.1 1030.2 0.0
15/07:00pm 12.6 9.1 5.3 61 3.4 S 13 15 7 8 1030.2 1030.3 0.0
15/06:30pm 13.2 9.3 5.4 59 3.6 S 15 19 8 10 1030.0 1030.1 0.0
15/06:00pm 13.7 9.0 5.3 57 3.9 S 19 24 10 13 1030.0 1030.1 0.0
15/05:30pm 14.3 9.5 5.7 56 4.1 S 20 28 11 15 1029.7 1029.9 0.0
15/05:00pm 14.7 9.1 5.2 53 4.5 SSW 24 33 13 18 1029.6 1029.8 0.0
15/04:30pm 14.9 9.6 5.1 52 4.6 SSW 22 32 12 17 1029.9 1030.0 0.0
15/04:00pm 14.8 9.9 5.1 52 4.6 S 20 28 11 15 1029.9 1030.0 0.0
15/03:30pm 15.1 10.2 5.3 52 4.6 S 20 26 11 14 1029.7 1029.9 0.0
15/03:00pm 15.0 9.4 5.5 53 4.5 SSW 24 30 13 16 1029.9 1030.0 0.0
15/02:30pm 14.1 8.0 4.9 54 4.3 SSW 26 37 14 20 1030.2 1030.3 0.0
15/02:00pm 13.9 7.8 5.0 55 4.2 S 26 32 14 17 1030.5 1030.6 0.0
15/01:30pm 14.0 8.3 5.1 55 4.2 SSW 24 32 13 17 1030.8 1030.9 0.0
15/01:00pm 13.8 8.5 4.9 55 4.2 SSW 22 28 12 15 1031.4 1031.5 0.0
15/12:30pm 13.5 7.5 5.2 57 3.9 SSW 26 35 14 19 1031.7 1031.8 0.0

Other formats

Comma delimited format used in spreadsheet applications
http://www.bom.gov.au/fwo/IDS60801/IDS60801.94659.axf

JavaScript Object Notation format (JSON) in row-major order
http://www.bom.gov.au/fwo/IDS60801/IDS60801.94659.json

Data quality

Most of these data are generated automatically and are frequently updated. Quality checks on data are not normally performed. It is possible for incorrect values to appear. Refer to information at About Latest Weather Observations and please check the disclaimer before using these data.